地図

経路データ

SID SEASON NUMBER BASIN SUBBASIN NAME ISO_TIME NATURE LAT LON WMO_WIND WMO_PRES WMO_AGENCY TRACK_TYPE DIST2LAND LANDFALL IFLAG USA_AGENCY USA_ATCF_ID USA_LAT USA_LON USA_RECORD USA_STATUS USA_WIND USA_PRES USA_SSHS USA_R34_NE USA_R34_SE USA_R34_SW USA_R34_NW USA_R50_NE USA_R50_SE USA_R50_SW USA_R50_NW USA_R64_NE USA_R64_SE USA_R64_SW USA_R64_NW USA_POCI USA_ROCI USA_RMW USA_EYE TOKYO_LAT TOKYO_LON TOKYO_GRADE TOKYO_WIND TOKYO_PRES TOKYO_R50_DIR TOKYO_R50_LONG TOKYO_R50_SHORT TOKYO_R30_DIR TOKYO_R30_LONG TOKYO_R30_SHORT TOKYO_LAND CMA_LAT CMA_LON CMA_CAT CMA_WIND CMA_PRES HKO_LAT HKO_LON HKO_CAT HKO_WIND HKO_PRES NEWDELHI_LAT NEWDELHI_LON NEWDELHI_GRADE NEWDELHI_WIND NEWDELHI_PRES NEWDELHI_CI NEWDELHI_DP NEWDELHI_POCI REUNION_LAT REUNION_LON REUNION_TYPE REUNION_WIND REUNION_PRES REUNION_TNUM REUNION_CI REUNION_RMW REUNION_R34_NE REUNION_R34_SE REUNION_R34_SW REUNION_R34_NW REUNION_R50_NE REUNION_R50_SE REUNION_R50_SW REUNION_R50_NW REUNION_R64_NE REUNION_R64_SE REUNION_R64_SW REUNION_R64_NW BOM_LAT BOM_LON BOM_TYPE BOM_WIND BOM_PRES BOM_TNUM BOM_CI BOM_RMW BOM_R34_NE BOM_R34_SE BOM_R34_SW BOM_R34_NW BOM_R50_NE BOM_R50_SE BOM_R50_SW BOM_R50_NW BOM_R64_NE BOM_R64_SE BOM_R64_SW BOM_R64_NW BOM_ROCI BOM_POCI BOM_EYE BOM_POS_METHOD BOM_PRES_METHOD NADI_LAT NADI_LON NADI_CAT NADI_WIND NADI_PRES WELLINGTON_LAT WELLINGTON_LON WELLINGTON_WIND WELLINGTON_PRES DS824_LAT DS824_LON DS824_STAGE DS824_WIND DS824_PRES TD9636_LAT TD9636_LON TD9636_STAGE TD9636_WIND TD9636_PRES TD9635_LAT TD9635_LON TD9635_WIND TD9635_PRES TD9635_ROCI NEUMANN_LAT NEUMANN_LON NEUMANN_CLASS NEUMANN_WIND NEUMANN_PRES MLC_LAT MLC_LON MLC_CLASS MLC_WIND MLC_PRES USA_GUST BOM_GUST BOM_GUST_PER REUNION_GUST REUNION_GUST_PER USA_SEAHGT USA_SEARAD_NE USA_SEARAD_SE USA_SEARAD_SW USA_SEARAD_NW STORM_SPEED STORM_DIR
1882199N21089 1882 19 NI BB NOT_NAMED 1882-07-18 00:00:00 TS 20.5000 88.7000 main 124 123 _________O____ -1 20.5000 88.7000 TC 34 1 298
1882199N21089 1882 19 NI BB NOT_NAMED 1882-07-18 03:00:00 TS 20.5267 88.6333 main 123 111 _________PO___ -1 20.5400 88.6000 TC 36 20.5000 88.7000 2 2 301
1882199N21089 1882 19 NI BB NOT_NAMED 1882-07-18 06:00:00 TS 20.5926 88.5302 main 111 100 _________OP___ -1 20.6000 88.5000 TC 39 20.5816 88.5755 2 2 308
1882199N21089 1882 19 NI BB NOT_NAMED 1882-07-18 09:00:00 TS 20.6788 88.4260 main 100 89 _________PP___ -1 20.6925 88.4000 TC 42 20.6604 88.4607 2 3 314
1882199N21089 1882 19 NI BB NOT_NAMED 1882-07-18 12:00:00 TS 20.7671 88.3328 main 89 89 _________OP___ -1 20.8000 88.3000 TC 45 20.7341 88.3656 2 2 316
1882199N21089 1882 19 NI BB NOT_NAMED 1882-07-18 15:00:00 TS 20.8500 88.2500 main 78 78 _________PO___ -1 20.9000 88.2000 TC 45 20.8000 88.3000 3 2 319
1882199N21089 1882 19 NI BB NOT_NAMED 1882-07-18 18:00:00 TS 20.9299 88.1821 main 78 67 _________OP___ -1 21.0000 88.1000 TC 45 20.8597 88.2641 3 2 324
1882199N21089 1882 19 NI BB NOT_NAMED 1882-07-18 21:00:00 TS 20.9969 88.1353 main 67 56 _________PP___ -1 21.0623 88.0521 TC 45 20.9315 88.2185 3 3 319
1882199N21089 1882 19 NI BB NOT_NAMED 1882-07-19 00:00:00 TS 21.1188 88.0068 main 59 44 _________OP___ -1 21.2000 87.9000 TC 45 21.0375 88.1137 3 5 313
1882199N21089 1882 19 NI BB NOT_NAMED 1882-07-19 03:00:00 TS 21.3638 87.7089 main 33 0 _________PO___ -1 21.5276 87.5178 TC 41 21.2000 87.9000 3 9 309
1882199N21089 1882 19 NI BB NOT_NAMED 1882-07-19 06:00:00 TS 21.6776 87.2621 main 0 0 _________OP___ -1 21.9000 87.0000 TC 37 21.4552 87.5241 3 11 304
1882199N21089 1882 19 NI BB NOT_NAMED 1882-07-19 09:00:00 TS 21.9602 86.7617 main 0 0 _________PP___ -1 22.1572 86.4870 TC 33 21.7632 87.0364 3 11 300
1882199N21089 1882 19 NI BB NOT_NAMED 1882-07-19 12:00:00 TS 22.2447 86.1901 main 0 0 _________OP___ -1 22.4000 85.9000 TC 30 22.0895 86.4802 3 13 298
1882199N21089 1882 19 NI BB NOT_NAMED 1882-07-19 15:00:00 TS 22.5577 85.5390 main 0 0 _________PO___ -1 22.7155 85.1780 TC 30 22.4000 85.9000 1 13 296
1882199N21089 1882 19 NI BB NOT_NAMED 1882-07-19 18:00:00 TS 22.8421 84.8879 main 0 0 _________OP___ -1 23.0000 84.5000 TC 30 22.6843 85.2758 1 12 295
1882199N21089 1882 19 NI BB NOT_NAMED 1882-07-19 21:00:00 TS 23.0682 84.3230 main 0 0 _________PP___ -1 23.1947 83.9947 TC 30 22.9417 84.6512 1 10 293
1882199N21089 1882 19 NI BB NOT_NAMED 1882-07-20 00:00:00 TS 23.2265 83.9004 main 0 0 _________OP___ -1 23.3000 83.7000 TC 30 23.1530 84.1008 1 6 292
1882199N21089 1882 19 NI BB NOT_NAMED 1882-07-20 03:00:00 TS 23.3112 83.6699 main 0 0 _________PO___ -1 23.3223 83.6399 TC 30 23.3000 83.7000 1 3 292
1882199N21089 1882 19 NI BB NOT_NAMED 1882-07-20 06:00:00 TS 23.3317 83.6204 main 0 0 _________OP___ -1 23.3000 83.7000 TC 30 23.3635 83.5408 1 1 293
1882199N21089 1882 19 NI BB NOT_NAMED 1882-07-20 09:00:00 TS 23.3331 83.6169 main 0 0 _________PP___ -1 23.3000 83.7000 TC 30 23.3662 83.5339 1 0 110
1882199N21089 1882 19 NI BB NOT_NAMED 1882-07-20 12:00:00 TS 23.3180 83.6550 main 0 0 _________OP___ -1 23.3000 83.7000 TC 30 23.3359 83.6100 1 1 112
1882199N21089 1882 19 NI BB NOT_NAMED 1882-07-20 15:00:00 TS 23.3000 83.7000 main 0 0 _________PO___ -1 23.3000 83.7000 TC 30 23.3000 83.7000 1 1 111
1882199N21089 1882 19 NI BB NOT_NAMED 1882-07-20 18:00:00 TS 23.2746 83.7784 main 0 0 _________OP___ -1 23.3000 83.7000 TC 30 23.2492 83.8568 1 2 109
1882199N21089 1882 19 NI BB NOT_NAMED 1882-07-20 21:00:00 TS 23.2340 83.9007 main 0 0 _________PP___ -1 23.2619 83.8120 TC 30 23.2062 83.9893 1 1 110
1882199N21089 1882 19 NI BB NOT_NAMED 1882-07-21 00:00:00 TS 23.2550 83.8386 main 0 0 _________OP___ -1 23.3000 83.7000 TC 30 23.2101 83.9773 1 5 290
1882199N21089 1882 19 NI BB NOT_NAMED 1882-07-21 03:00:00 TS 23.3985 83.4148 main 0 0 _________PO___ -1 23.4970 83.1296 TC 30 23.3000 83.7000 1 12 290
1882199N21089 1882 19 NI BB NOT_NAMED 1882-07-21 06:00:00 TS 23.6608 82.5978 main 0 0 _________OP___ -1 23.8000 82.2000 TC 30 23.5216 82.9955 1 18 289
1882199N21089 1882 19 NI BB NOT_NAMED 1882-07-21 09:00:00 TS 23.9835 81.5233 main 0 0 _________PP___ -1 24.1439 81.0232 TC 30 23.8231 82.0233 1 22 288
1882199N21089 1882 19 NI BB NOT_NAMED 1882-07-21 12:00:00 TS 24.3312 80.3570 main 0 0 _________OP___ -1 24.5000 79.8000 TC 30 24.1623 80.9140 1 21 289
1882199N21089 1882 19 NI BB NOT_NAMED 1882-07-21 15:00:00 TS 24.6568 79.3271 main 0 0 _________PO___ -1 24.8135 78.8543 TC 30 24.5000 79.8000 1 19 289
1882199N21089 1882 19 NI BB NOT_NAMED 1882-07-21 18:00:00 TS 24.9447 78.4207 main 0 0 _________OP___ -1 25.1000 78.0000 TC 30 24.7894 78.8415 1 18 289
1882199N21089 1882 19 NI AS NOT_NAMED 1882-07-21 21:00:00 TS 25.2183 77.4897 main 0 0 _________PP___ -1 25.3649 77.0698 TC 30 25.0717 77.9096 1 17 288
1882199N21089 1882 19 NI AS NOT_NAMED 1882-07-22 00:00:00 TS 25.4715 76.6114 main 0 0 _________OP___ -1 25.6000 76.2000 TC 30 25.3430 77.0229 1 16 288
1882199N21089 1882 19 NI AS NOT_NAMED 1882-07-22 03:00:00 TS 25.6996 75.8309 main 0 0 _________PO___ -1 25.7993 75.4619 TC 30 25.6000 76.2000 1 14 288
1882199N21089 1882 19 NI AS NOT_NAMED 1882-07-22 06:00:00 TS 25.9144 75.1252 main 0 0 _________OP___ -1 26.0000 74.8000 TC 30 25.8288 75.4503 1 13 290
1882199N21089 1882 19 NI AS NOT_NAMED 1882-07-22 09:00:00 TS 26.1446 74.4537 main 0 0 _________PP___ -1 26.2421 74.1423 TC 30 26.0470 74.7650 1 13 292
1882199N21089 1882 19 NI AS NOT_NAMED 1882-07-22 12:00:00 TS 26.3834 73.8112 main 0 0 _________OP___ -1 26.5000 73.5000 TC 30 26.2668 74.1223 1 12 293
1882199N21089 1882 19 NI AS NOT_NAMED 1882-07-22 15:00:00 TS 26.6212 73.1711 main 0 0 _________PO___ -1 26.7423 72.8421 TC 30 26.5000 73.5000 1 12 294
1882199N21089 1882 19 NI AS NOT_NAMED 1882-07-22 18:00:00 TS 26.8600 72.5881 main 0 0 _________OP___ -1 27.0000 72.2000 TC 30 26.7550 72.8792 1 12 296
1882199N21089 1882 19 NI AS NOT_NAMED 1882-07-22 21:00:00 TS 27.1330 71.9898 main 0 0 _________PP___ -1 27.2904 71.5907 TC 30 27.0280 72.2559 1 12 298
1882199N21089 1882 19 NI AS NOT_NAMED 1882-07-23 00:00:00 TS 27.4080 71.4197 main 0 0 _________OP___ -1 27.6000 71.0000 TC 30 27.3120 71.6295 1 10 298
1882199N21089 1882 19 NI AS NOT_NAMED 1882-07-23 03:00:00 NR 27.6000 71.0000 main 0 __________O___ -1 TC 27.6000 71.0000 1 8 297

IBTrACS Databaseについて

本データベースは、米国NOAAが公開する1842年以降の世界の熱帯低気圧のベストトラックデータアーカイブInternational Best Track Archive for Climate Stewardship (IBTrACS)を、ウェブで閲覧しやすい形式に変換したものです。

最終更新日:2021-11-26